Time;durP1;ratioP1;P1;durP2;ratioP2;P2;SDS_P1;SDS_P2;PMS_P1;PMS_P2;Temp;Humidity;BMP_temperature;BMP_pressure;BME280_temperature;BME280_humidity;BME280_pressure;Samples;Min_cycle;Max_cycle;Signal;HPM_P1;HPM_P2
2021/12/31 00:01:24;;;;;;;6.20;3.10;;;;;;;13.13;100.00;101179.56;5032224;28;20463;-71
2021/12/31 00:04:08;;;;;;;4.47;3.60;;;;;;;13.08;100.00;101184.50;5033187;28;20601;-71
2021/12/31 00:06:52;;;;;;;4.70;3.00;;;;;;;13.04;100.00;101188.41;5033204;28;20072;-71
2021/12/31 00:09:36;;;;;;;;;;;;;;;13.05;100.00;101178.56;5033696;28;20052;-71
2021/12/31 00:12:20;;;;;;;6.30;2.88;;;;;;;13.07;100.00;101181.94;5032297;28;19967;-71
2021/12/31 00:15:04;;;;;;;;;;;;;;;13.04;100.00;101188.41;5032795;28;20136;-70
2021/12/31 00:17:48;;;;;;;3.93;3.13;;;;;;;13.07;100.00;101181.94;5032283;28;19919;-72
2021/12/31 00:20:34;;;;;;;4.80;3.10;;;;;;;13.02;100.00;101189.53;5033786;28;20044;-71
2021/12/31 00:23:23;;;;;;;7.18;3.72;;;;;;;13.03;100.00;101185.88;5032896;28;20083;-71
2021/12/31 00:26:07;;;;;;;5.45;2.90;;;;;;;12.92;100.00;101188.63;5033133;28;20480;-71
2021/12/31 00:28:51;;;;;;;8.23;3.40;;;;;;;12.92;100.00;101192.16;5031807;28;20083;-72
2021/12/31 00:31:35;;;;;;;6.75;3.30;;;;;;;12.88;100.00;101182.72;5032653;28;20096;-72
2021/12/31 00:34:18;;;;;;;7.88;3.70;;;;;;;12.87;100.00;101193.56;5031718;28;20114;-72
2021/12/31 00:37:03;;;;;;;4.28;3.28;;;;;;;12.87;100.00;101188.22;5033021;28;20052;-72
2021/12/31 00:39:46;;;;;;;;;;;;;;;12.84;100.00;101191.16;5033235;28;20056;-71
2021/12/31 00:42:31;;;;;;;5.80;3.83;;;;;;;12.85;100.00;101182.97;5032777;28;19920;-72
2021/12/31 00:45:18;;;;;;;9.02;4.15;;;;;;;12.78;100.00;101175.66;5032907;28;20068;-72
2021/12/31 00:48:01;;;;;;;6.30;3.80;;;;;;;12.75;100.00;101180.41;5031492;28;20053;-72
2021/12/31 00:50:45;;;;;;;5.75;4.03;;;;;;;12.72;100.00;101183.38;5032359;28;20115;-72
2021/12/31 00:53:29;;;;;;;4.47;3.80;;;;;;;12.66;100.00;101186.56;5032781;28;20129;-72
2021/12/31 00:56:13;;;;;;;;;;;;;;;12.62;100.00;101187.84;5033417;28;20107;-72
2021/12/31 00:58:57;;;;;;;5.80;4.20;;;;;;;12.58;100.00;101184.59;5031829;28;19919;-71
2021/12/31 01:01:41;;;;;;;;;;;;;;;12.61;100.00;101178.97;5031829;28;20041;-71
2021/12/31 01:04:25;;;;;;;8.23;4.30;;;;;;;12.59;100.00;101174.75;5032404;28;19972;-71
2021/12/31 01:07:09;;;;;;;7.13;4.18;;;;;;;12.62;100.00;101179.81;5031426;28;20312;-71
2021/12/31 01:09:54;;;;;;;7.30;4.40;;;;;;;12.56;100.00;101181.22;5032532;28;20091;-71
2021/12/31 01:12:39;;;;;;;7.65;5.13;;;;;;;12.62;100.00;101191.34;5032575;28;20039;-70
2021/12/31 01:15:46;;;;;;;6.35;4.15;;;;;;;12.60;100.00;101187.97;5031507;28;20052;-71
2021/12/31 01:19:44;;;;;;;6.22;4.60;;;;;;;12.62;100.00;101186.00;5032566;28;20516;-71
2021/12/31 01:21:33;;;;;;;8.40;4.68;;;;;;;12.59;100.00;101180.09;5032086;28;20472;-71
2021/12/31 01:24:19;;;;;;;10.05;5.75;;;;;;;12.55;100.00;101194.69;5031368;28;20107;-71
2021/12/31 01:27:03;;;;;;;7.93;5.30;;;;;;;12.56;100.00;101186.56;5036170;28;20048;-71
2021/12/31 01:29:47;;;;;;;8.43;5.93;;;;;;;12.49;100.00;101181.88;5021400;28;20504;-71
2021/12/31 01:32:31;;;;;;;11.77;6.35;;;;;;;12.46;100.00;101174.97;5036296;28;20048;-71
2021/12/31 01:35:15;;;;;;;11.18;5.03;;;;;;;12.41;100.00;101181.69;5036054;28;20052;-72
2021/12/31 01:37:59;;;;;;;12.25;5.60;;;;;;;12.39;100.00;101171.13;5021253;28;20052;-72
2021/12/31 01:40:44;;;;;;;11.32;5.95;;;;;;;12.40;100.00;101180.84;5035003;28;20080;-71
2021/12/31 01:43:28;;;;;;;8.13;5.20;;;;;;;12.35;100.00;101185.75;5021154;28;20055;-71
2021/12/31 01:46:12;;;;;;;;;;;;;;;12.30;100.00;101179.94;5036495;28;20052;-71
2021/12/31 01:51:40;;;;;;;8.75;5.97;;;;;;;12.16;100.00;101188.31;5034639;28;20056;-72
2021/12/31 01:54:24;;;;;;;8.77;5.93;;;;;;;12.15;100.00;101186.63;5035863;28;20048;-72
2021/12/31 01:57:09;;;;;;;11.95;5.60;;;;;;;12.03;100.00;101187.69;5035601;28;20084;-72
2021/12/31 01:59:53;;;;;;;11.95;5.88;;;;;;;12.03;100.00;101186.84;5034587;28;20048;-72
2021/12/31 02:02:37;;;;;;;10.38;6.00;;;;;;;11.94;100.00;101187.63;5034733;28;20051;-71
2021/12/31 02:05:21;;;;;;;12.40;6.13;;;;;;;11.87;100.00;101181.94;5035926;28;20044;-71
2021/12/31 02:08:05;;;;;;;13.02;6.82;;;;;;;11.75;100.00;101182.13;5020878;28;20079;-71
2021/12/31 02:10:50;;;;;;;15.07;7.63;;;;;;;11.70;100.00;101176.34;5035526;28;20103;-72
2021/12/31 02:13:35;;;;;;;12.63;6.65;;;;;;;11.68;100.00;101178.31;5034466;28;20056;-71
2021/12/31 02:16:19;;;;;;;11.70;7.30;;;;;;;11.63;100.00;101183.19;5034442;28;20107;-71
2021/12/31 02:19:11;;;;;;;15.43;7.40;;;;;;;11.58;100.00;101175.53;5034230;28;20064;-71
2021/12/31 02:21:56;;;;;;;14.35;7.10;;;;;;;11.57;100.00;101187.22;5035217;28;20409;-71
2021/12/31 02:24:41;;;;;;;12.43;7.10;;;;;;;11.42;100.00;101177.78;5034345;28;20049;-71
2021/12/31 02:27:26;;;;;;;13.23;6.75;;;;;;;11.38;100.00;101165.66;5035405;28;20060;-71
2021/12/31 02:30:10;;;;;;;11.18;7.22;;;;;;;11.29;100.00;101179.75;5020132;28;20099;-72
2021/12/31 02:32:55;;;;;;;13.15;8.60;;;;;;;11.27;100.00;101176.38;5035258;28;20045;-72
2021/12/31 02:35:40;;;;;;;15.98;7.90;;;;;;;11.35;100.00;101173.91;5033987;28;20107;-71
2021/12/31 02:38:24;;;;;;;14.00;8.32;;;;;;;11.37;100.00;101166.63;5033358;28;20555;-72
2021/12/31 02:41:07;;;;;;;17.02;8.57;;;;;;;11.31;100.00;101172.50;5034845;28;20158;-72
2021/12/31 02:43:51;;;;;;;14.50;7.68;;;;;;;11.25;100.00;101177.50;5034930;28;20052;-72
2021/12/31 02:46:35;;;;;;;13.18;8.30;;;;;;;11.32;100.00;101166.19;5033928;28;20103;-71
2021/12/31 02:49:23;;;;;;;16.30;8.30;;;;;;;11.15;100.00;101177.38;5033649;28;20564;-72
2021/12/31 02:52:11;;;;;;;14.02;7.78;;;;;;;11.10;100.00;101190.28;5034781;28;20567;-70
2021/12/31 02:54:56;;;;;;;15.40;8.02;;;;;;;11.09;100.00;101175.25;5034825;28;20524;-71
2021/12/31 02:57:40;;;;;;;11.60;7.25;;;;;;;11.03;100.00;101178.41;5033448;28;20048;-71
2021/12/31 03:00:24;;;;;;;11.68;7.30;;;;;;;10.99;100.00;101181.44;5033494;28;20064;-70
2021/12/31 03:03:09;;;;;;;19.40;7.10;;;;;;;10.95;100.00;101178.16;5019475;28;20052;-71
2021/12/31 03:05:54;;;;;;;11.73;7.28;;;;;;;10.87;100.00;101183.28;5019633;28;20068;-71
2021/12/31 03:08:45;;;;;;;12.25;7.10;;;;;;;10.84;100.00;101183.53;5033459;28;20053;-70
2021/12/31 03:11:30;;;;;;;13.30;7.43;;;;;;;10.82;100.00;101181.94;5034466;28;20095;-71
2021/12/31 03:14:14;;;;;;;10.13;6.88;;;;;;;10.79;100.00;101188.41;5033496;28;20053;-72
2021/12/31 03:16:59;;;;;;;13.23;7.00;;;;;;;10.75;100.00;101181.59;5033116;28;20053;-71
2021/12/31 03:19:44;;;;;;;17.08;7.57;;;;;;;10.70;100.00;101186.47;5033251;28;20503;-72
2021/12/31 03:22:27;;;;;;;13.48;7.65;;;;;;;10.76;100.00;101190.47;5034454;28;20095;-72
2021/12/31 03:25:11;;;;;;;10.75;7.20;;;;;;;10.67;100.00;101186.69;5035743;28;20049;-72
2021/12/31 03:27:55;;;;;;;13.40;7.13;;;;;;;10.69;100.00;101179.44;5035999;28;20144;-72
2021/12/31 03:30:39;;;;;;;12.48;8.02;;;;;;;10.72;100.00;101179.19;5034858;28;20488;-71
2021/12/31 03:33:24;;;;;;;12.40;7.10;;;;;;;10.76;100.00;101185.13;5033634;28;20102;-71
2021/12/31 03:36:08;;;;;;;9.35;6.20;;;;;;;10.91;100.00;101189.22;5033782;28;20068;-69
2021/12/31 03:38:52;;;;;;;8.82;5.65;;;;;;;10.83;100.00;101184.50;5018996;28;20045;-71
2021/12/31 03:41:37;;;;;;;9.30;5.78;;;;;;;10.81;100.00;101183.78;5033586;28;20460;-71
2021/12/31 03:44:21;;;;;;;11.00;6.53;;;;;;;10.74;100.00;101193.25;5033730;28;20121;-72
2021/12/31 03:47:05;;;;;;;;;;;;;;;10.87;100.00;101188.59;5034266;28;20056;-71
2021/12/31 03:49:51;;;;;;;8.67;5.60;;;;;;;10.81;100.00;101178.44;5032195;28;19919;-71
2021/12/31 03:52:38;;;;;;;9.50;6.00;;;;;;;10.96;100.00;101182.53;5018874;28;20413;-72
2021/12/31 03:55:22;;;;;;;8.77;5.43;;;;;;;10.92;100.00;101173.09;5033692;28;20052;-71
2021/12/31 03:58:05;;;;;;;10.52;5.45;;;;;;;10.85;100.00;101181.72;5032575;28;20096;-71
2021/12/31 04:00:49;;;;;;;9.85;6.28;;;;;;;10.84;100.00;101177.38;5033439;28;20416;-71
2021/12/31 04:03:33;;;;;;;10.30;5.63;;;;;;;10.92;100.00;101180.22;5033314;28;20187;-72
2021/12/31 04:06:17;;;;;;;12.57;6.15;;;;;;;10.80;100.00;101176.75;5033494;28;20048;-71
2021/12/31 04:09:01;;;;;;;11.48;5.85;;;;;;;10.88;100.00;101179.63;5032466;28;20052;-71
2021/12/31 04:11:45;;;;;;;11.00;6.20;;;;;;;10.76;100.00;101172.63;5031977;28;20107;-71
2021/12/31 04:14:29;;;;;;;10.57;6.70;;;;;;;10.75;100.00;101167.44;5033339;28;20524;-70
2021/12/31 04:17:13;;;;;;;14.52;6.13;;;;;;;10.78;100.00;101176.03;5033306;28;20044;-70
2021/12/31 04:19:57;;;;;;;14.15;6.25;;;;;;;10.74;100.00;101171.91;5032004;28;20048;-71
2021/12/31 04:22:50;;;;;;;13.88;6.93;;;;;;;10.69;100.00;101165.25;5033188;28;20414;-72
2021/12/31 04:25:36;;;;;;;12.10;6.68;;;;;;;10.63;100.00;101163.09;5032215;28;20096;-71
2021/12/31 04:28:20;;;;;;;9.05;6.35;;;;;;;10.69;100.00;101159.91;5032868;28;20175;-72
2021/12/31 04:31:04;;;;;;;13.98;6.57;;;;;;;10.62;100.00;101156.03;5031714;28;20048;-72
2021/12/31 04:33:48;;;;;;;13.18;7.78;;;;;;;10.66;100.00;101162.84;5031801;28;20119;-70
2021/12/31 04:36:32;;;;;;;15.55;6.90;;;;;;;10.59;100.00;101150.97;5032976;28;20496;-72
2021/12/31 04:39:16;;;;;;;9.68;6.97;;;;;;;10.63;100.00;101157.75;5017931;28;20071;-72
2021/12/31 04:42:00;;;;;;;11.02;6.60;;;;;;;10.56;100.00;101152.03;5032202;28;20576;-72
2021/12/31 04:44:45;;;;;;;9.57;6.72;;;;;;;10.51;100.00;101148.91;5032660;28;20052;-72
2021/12/31 04:47:28;;;;;;;16.00;6.85;;;;;;;10.41;100.00;101147.94;5031677;28;20154;-72
2021/12/31 04:50:13;;;;;;;10.13;6.75;;;;;;;10.23;100.00;101143.25;5031655;28;20092;-71
2021/12/31 04:52:57;;;;;;;13.88;7.40;;;;;;;10.10;100.00;101141.66;5017860;28;20555;-71
2021/12/31 04:55:40;;;;;;;12.32;8.50;;;;;;;10.01;100.00;101143.16;5032859;28;20076;-71
2021/12/31 04:58:24;;;;;;;16.88;8.40;;;;;;;9.95;100.00;101142.81;5032618;28;20183;-71
2021/12/31 05:01:08;;;;;;;13.88;8.02;;;;;;;9.73;100.00;101138.31;5034534;28;20049;-71
2021/12/31 05:03:52;;;;;;;;;;;;;;;9.70;100.00;101135.84;5036294;28;20505;-70
2021/12/31 05:06:37;;;;;;;16.55;10.10;;;;;;;9.58;100.00;101142.13;5035583;28;20387;-71
2021/12/31 05:09:21;;;;;;;18.08;10.93;;;;;;;9.59;100.00;101141.16;5035501;28;20068;-71
2021/12/31 05:12:06;;;;;;;22.65;11.25;;;;;;;9.46;100.00;101147.56;5036713;28;20133;-71
2021/12/31 05:14:50;;;;;;;21.60;11.00;;;;;;;9.22;100.00;101136.06;5036460;28;20048;-71
2021/12/31 05:17:35;;;;;;;26.50;12.18;;;;;;;9.08;100.00;101133.59;5035397;28;20060;-71
2021/12/31 05:20:19;;;;;;;22.52;12.48;;;;;;;9.00;100.00;101133.31;5036388;28;20095;-71
2021/12/31 05:23:03;;;;;;;24.10;12.63;;;;;;;8.95;100.00;101140.81;5035538;28;20517;-71
2021/12/31 05:25:47;;;;;;;30.83;14.45;;;;;;;8.84;100.00;101138.91;5036415;28;20124;-71
2021/12/31 05:28:32;;;;;;;35.25;15.98;;;;;;;8.82;100.00;101147.97;5036637;28;20540;-71
2021/12/31 05:31:16;;;;;;;39.70;17.80;;;;;;;8.84;100.00;101140.72;5021450;28;20052;-71
2021/12/31 05:34:00;;;;;;;32.65;14.57;;;;;;;8.70;100.00;101143.53;5036352;28;20056;-71
2021/12/31 05:36:44;;;;;;;37.28;15.80;;;;;;;8.52;100.00;101144.84;5036157;28;20099;-70
2021/12/31 05:39:28;;;;;;;33.70;15.13;;;;;;;8.49;100.00;101135.31;5035254;28;20099;-72
2021/12/31 05:42:12;;;;;;;36.70;16.95;;;;;;;8.44;100.00;101136.63;5034920;28;20516;-71
2021/12/31 05:44:56;;;;;;;52.33;19.63;;;;;;;8.50;100.00;101130.84;5035101;28;20484;-70
2021/12/31 05:47:40;;;;;;;;;;;;;;;8.44;100.00;101128.63;5035547;28;20052;-71
2021/12/31 05:50:30;;;;;;;61.13;20.88;;;;;;;8.48;100.00;101132.75;5034577;28;19973;-70
2021/12/31 05:53:14;;;;;;;68.78;19.67;;;;;;;8.38;100.00;101135.25;5035777;28;20048;-70
2021/12/31 05:55:58;;;;;;;56.15;18.60;;;;;;;8.40;100.00;101133.31;5034893;28;20056;-71
2021/12/31 05:58:41;;;;;;;75.88;26.33;;;;;;;8.58;100.00;101133.78;5034654;28;20155;-71
2021/12/31 06:01:25;;;;;;;82.20;26.90;;;;;;;8.62;100.00;101129.94;5035652;28;20103;-71
2021/12/31 06:04:09;;;;;;;90.53;30.13;;;;;;;8.69;100.00;101131.22;5035600;28;20049;-71
2021/12/31 06:06:53;;;;;;;95.63;29.40;;;;;;;8.54;100.00;101130.50;5035740;28;20466;-72
2021/12/31 06:09:38;;;;;;;105.63;31.88;;;;;;;8.65;100.00;101137.72;5034268;28;20159;-71
2021/12/31 06:12:23;;;;;;;;;;;;;;;8.69;100.00;101141.84;5034909;28;20048;-71
2021/12/31 06:15:09;;;;;;;91.82;28.67;;;;;;;8.64;100.00;101139.50;5034620;28;19951;-70
2021/12/31 06:17:53;;;;;;;116.53;31.60;;;;;;;8.62;100.00;101145.88;5034630;28;20413;-72
2021/12/31 06:20:37;;;;;;;;;;;;;;;8.30;100.00;101142.91;5036272;28;20183;-71
2021/12/31 06:23:21;;;;;;;120.25;29.90;;;;;;;8.48;100.00;101149.56;5035265;28;20095;-71
2021/12/31 06:26:05;;;;;;;;;;;;;;;8.51;100.00;101159.09;5021047;28;20109;-72
2021/12/31 06:28:49;;;;;;;24.75;12.20;;;;;;;8.40;100.00;101157.22;5034356;28;20288;-72
2021/12/31 06:31:33;;;;;;;68.65;18.67;;;;;;;8.31;100.00;101167.66;5034919;28;20102;-71
2021/12/31 06:34:17;;;;;;;71.57;21.85;;;;;;;8.41;100.00;101168.69;5035276;28;20052;-71
2021/12/31 06:37:01;;;;;;;80.10;21.35;;;;;;;8.39;100.00;101170.63;5034998;28;20425;-71
2021/12/31 06:39:46;;;;;;;104.60;23.63;;;;;;;8.39;100.00;101170.63;5020091;28;20052;-71
2021/12/31 06:42:30;;;;;;;113.07;23.70;;;;;;;8.50;100.00;101168.03;5033823;28;20091;-72
2021/12/31 06:45:14;;;;;;;190.95;32.80;;;;;;;8.69;100.00;101173.75;5033790;28;20072;-72
2021/12/31 06:47:58;;;;;;;181.23;31.70;;;;;;;8.70;100.00;101170.13;5035025;28;20048;-71
2021/12/31 06:50:42;;;;;;;173.13;27.90;;;;;;;8.61;100.00;101176.09;5034518;28;20068;-71
2021/12/31 06:53:25;;;;;;;133.65;29.45;;;;;;;8.57;100.00;101164.00;5034928;28;20118;-71
2021/12/31 06:56:09;;;;;;;199.93;34.83;;;;;;;8.61;100.00;101165.47;5033880;28;20092;-71
2021/12/31 06:58:53;;;;;;;229.77;39.15;;;;;;;8.73;100.00;101167.22;5033552;28;20119;-72
2021/12/31 07:01:37;;;;;;;212.80;36.78;;;;;;;8.80;100.00;101160.53;5033598;28;20068;-71
2021/12/31 07:04:22;;;;;;;209.27;37.65;;;;;;;8.83;100.00;101153.16;5034691;28;20126;-72
2021/12/31 07:07:06;;;;;;;191.90;34.17;;;;;;;8.89;100.00;101162.50;5033431;28;20052;-72
2021/12/31 07:09:50;;;;;;;180.43;36.67;;;;;;;8.87;100.00;101156.47;5034281;28;20524;-71
2021/12/31 07:12:34;;;;;;;199.05;37.00;;;;;;;8.83;100.00;101162.94;5034225;28;20048;-71
2021/12/31 07:15:18;;;;;;;207.57;34.92;;;;;;;8.87;100.00;101162.59;5034291;28;20083;-71
2021/12/31 07:18:02;;;;;;;201.20;34.90;;;;;;;8.86;100.00;101160.91;5034436;28;20065;-71
2021/12/31 07:20:47;;;;;;;178.27;33.90;;;;;;;8.82;100.00;101170.09;5033114;28;20179;-71
2021/12/31 07:23:31;;;;;;;263.63;35.63;;;;;;;8.81;100.00;101164.88;5032620;28;20255;-72
2021/12/31 07:26:15;;;;;;;154.18;30.20;;;;;;;8.81;100.00;101156.91;5034242;28;20409;-71
2021/12/31 07:28:59;;;;;;;167.68;30.42;;;;;;;8.75;100.00;101168.81;5033451;28;20056;-71
2021/12/31 07:31:43;;;;;;;;;;;;;;;8.72;100.00;101168.19;5034278;28;20080;-71
2021/12/31 07:34:27;;;;;;;217.95;35.53;;;;;;;8.72;100.00;101160.22;5034142;28;20294;-72
2021/12/31 07:37:11;;;;;;;;;;;;;;;8.71;100.00;101166.50;5034212;28;20128;-72
2021/12/31 07:40:00;;;;;;;166.90;31.83;;;;;;;8.72;100.00;101166.41;5032629;28;20515;-72
2021/12/31 07:42:44;;;;;;;137.93;29.33;;;;;;;8.70;100.00;101170.13;5034001;28;20174;-71
2021/12/31 07:45:28;;;;;;;165.00;33.67;;;;;;;8.64;100.00;101170.56;5033903;28;20133;-71
2021/12/31 07:48:12;;;;;;;149.88;31.55;;;;;;;8.66;100.00;101174.81;5018607;28;20107;-72
2021/12/31 07:50:56;;;;;;;153.07;33.30;;;;;;;8.62;100.00;101175.13;5033284;28;20072;-72
2021/12/31 07:53:40;;;;;;;147.13;34.95;;;;;;;8.62;100.00;101177.78;5018770;28;20048;-72
2021/12/31 07:56:24;;;;;;;152.38;35.30;;;;;;;8.61;100.00;101176.09;5033802;28;20358;-71
2021/12/31 07:59:08;;;;;;;;;;;;;;;8.64;100.00;101179.38;5034143;28;20147;-72
2021/12/31 08:01:52;;;;;;;137.20;32.47;;;;;;;8.61;100.00;101184.06;5032363;28;19920;-71
2021/12/31 08:04:36;;;;;;;180.43;35.63;;;;;;;8.62;100.00;101183.09;5033446;28;20452;-72
2021/12/31 08:07:19;;;;;;;162.63;36.33;;;;;;;8.58;100.00;101181.63;5033225;28;20527;-69
2021/12/31 08:10:04;;;;;;;155.95;33.42;;;;;;;8.54;100.00;101190.81;5018136;28;20052;-71
2021/12/31 08:12:48;;;;;;;149.48;37.38;;;;;;;8.52;100.00;101182.94;5032308;28;20044;-72
2021/12/31 08:15:32;;;;;;;172.20;38.05;;;;;;;8.50;100.00;101168.03;5033112;28;20071;-70
2021/12/31 08:18:16;;;;;;;153.93;36.58;;;;;;;8.53;100.00;101176.66;5033331;28;20047;-72
2021/12/31 08:21:03;;;;;;;199.60;40.80;;;;;;;8.55;100.00;101176.56;5017984;28;20048;-71
2021/12/31 08:23:48;;;;;;;178.00;39.03;;;;;;;8.55;100.00;101169.41;5031919;28;20076;-72
2021/12/31 08:26:31;;;;;;;164.13;39.53;;;;;;;8.57;100.00;101170.16;5032275;28;20056;-72
2021/12/31 08:29:15;;;;;;;;;;;;;;;8.60;100.00;101171.75;5032585;28;20056;-72
2021/12/31 08:31:59;;;;;;;201.07;40.60;;;;;;;8.64;100.00;101171.41;5032771;28;19924;-72
2021/12/31 08:34:43;;;;;;;187.25;39.95;;;;;;;8.67;100.00;101165.03;5032175;28;20068;-72
2021/12/31 08:37:27;;;;;;;151.38;35.65;;;;;;;8.70;100.00;101160.34;5032810;28;20440;-71
2021/12/31 08:40:12;;;;;;;191.25;38.90;;;;;;;8.75;100.00;101162.69;5032785;28;20048;-72
2021/12/31 08:42:55;;;;;;;168.75;39.67;;;;;;;8.79;100.00;101165.00;5032962;28;20048;-70
2021/12/31 08:45:39;;;;;;;;;;;;;;;8.84;100.00;101173.47;5032366;28;20420;-71
2021/12/31 08:48:23;;;;;;;110.03;31.93;;;;;;;8.80;100.00;101165.84;5017818;28;20316;-69
2021/12/31 08:51:07;;;;;;;90.53;27.70;;;;;;;8.58;100.00;101168.34;5032564;28;20051;-71
2021/12/31 08:53:52;;;;;;;85.93;29.10;;;;;;;8.54;100.00;101158.91;5032864;28;20048;-71
2021/12/31 08:56:36;;;;;;;94.80;29.92;;;;;;;8.53;100.00;101157.19;5017730;28;20136;-72
2021/12/31 08:59:20;;;;;;;113.93;31.42;;;;;;;8.72;100.00;101160.22;5031441;28;20106;-71
2021/12/31 09:02:04;;;;;;;111.28;30.80;;;;;;;8.73;100.00;101160.13;5017944;28;20116;-71
2021/12/31 09:04:49;;;;;;;74.10;25.92;;;;;;;8.72;100.00;101160.22;5031468;28;20052;-71
2021/12/31 09:07:33;;;;;;;108.93;30.05;;;;;;;8.76;100.00;101159.06;5031759;28;20464;-71
2021/12/31 09:10:17;;;;;;;108.60;31.17;;;;;;;8.86;100.00;101155.59;5031462;28;20077;-71
2021/12/31 09:13:01;;;;;;;86.40;27.98;;;;;;;8.83;100.00;101154.97;5017656;28;20041;-71
2021/12/31 09:15:45;;;;;;;91.68;28.42;;;;;;;8.85;100.00;101153.06;5017387;28;20455;-71
2021/12/31 09:18:29;;;;;;;75.15;26.73;;;;;;;8.87;100.00;101156.47;5031636;28;20420;-71
2021/12/31 09:21:17;;;;;;;86.63;27.13;;;;;;;9.00;100.00;101159.91;5032538;28;20048;-71
2021/12/31 09:24:01;;;;;;;65.40;24.13;;;;;;;9.01;100.00;101166.91;5031591;28;20052;-71
2021/12/31 09:26:45;;;;;;;64.60;23.75;;;;;;;9.17;100.00;101170.16;5032571;28;20052;-71
2021/12/31 09:29:29;;;;;;;42.70;19.48;;;;;;;9.30;100.00;101170.94;5032168;28;20459;-72
2021/12/31 09:32:13;;;;;;;46.15;20.85;;;;;;;9.39;100.00;101156.94;5031391;28;20052;-71
2021/12/31 09:34:58;;;;;;;43.25;18.75;;;;;;;9.38;100.00;101163.25;5031391;28;20103;-70
2021/12/31 09:37:42;;;;;;;39.65;17.50;;;;;;;9.42;100.00;101164.69;5031449;28;20063;-71
2021/12/31 09:40:27;;;;;;;38.90;17.58;;;;;;;9.31;100.00;101165.53;5032092;28;20071;-70
2021/12/31 09:43:12;;;;;;;35.47;17.45;;;;;;;9.50;100.00;101167.63;5032598;28;20045;-69
2021/12/31 09:45:56;;;;;;;43.35;19.85;;;;;;;9.92;100.00;101159.91;5031784;28;20051;-72
2021/12/31 09:48:40;;;;;;;25.27;14.63;;;;;;;10.11;100.00;101165.50;5035141;28;20096;-71
2021/12/31 09:51:24;;;;;;;21.90;12.73;;;;;;;10.68;100.00;101167.09;5035813;28;20524;-70
2021/12/31 09:54:10;;;;;;;27.05;15.68;;;;;;;11.36;100.00;101164.09;5034888;28;20099;-70
2021/12/31 09:56:53;;;;;;;11.93;9.32;;;;;;;12.82;100.00;101156.50;5021078;28;20107;-71
2021/12/31 09:59:40;;;;;;;;;;;;;;;13.83;100.00;101123.00;5036185;28;20079;-72
2021/12/31 10:02:33;;;;;;;6.05;4.97;;;;;;;14.09;100.00;101122.22;5021094;28;19919;-72
2021/12/31 10:05:17;;;;;;;6.80;5.75;;;;;;;12.23;100.00;101114.66;5020550;28;20048;-70
2021/12/31 10:08:01;;;;;;;6.22;5.38;;;;;;;11.84;100.00;101112.75;5035953;28;20401;-70
2021/12/31 10:11:04;;;;;;;6.85;6.00;;;;;;;11.98;100.00;101109.72;5020816;28;20048;-71
2021/12/31 10:13:51;;;;;;;6.53;5.82;;;;;;;11.59;100.00;101112.31;5035689;28;20049;-71
2021/12/31 10:16:40;;;;;;;8.40;6.30;;;;;;;11.23;100.00;101110.88;5035574;28;20060;-70
2021/12/31 10:19:24;;;;;;;8.90;5.82;;;;;;;11.61;100.00;101115.69;5020503;28;20103;-71
2021/12/31 10:22:16;;;;;;;7.60;6.25;;;;;;;10.54;100.00;101126.50;5035384;28;20094;-70
2021/12/31 10:25:00;;;;;;;9.70;6.95;;;;;;;10.24;100.00;101124.44;5034557;28;20120;-71
2021/12/31 10:27:45;;;;;;;9.63;7.78;;;;;;;10.05;100.00;101111.84;5038686;28;20102;-71
2021/12/31 10:30:28;;;;;;;11.77;8.70;;;;;;;9.88;100.00;101101.66;5039342;28;20076;-70
2021/12/31 10:33:12;;;;;;;;;;;;;;;10.04;100.00;101112.81;5039590;28;20129;-71
2021/12/31 10:35:56;;;;;;;14.30;9.03;;;;;;;10.01;100.00;101121.03;5038917;28;20012;-70
2021/12/31 10:38:40;;;;;;;12.40;9.50;;;;;;;9.96;100.00;101116.06;5038066;28;20098;-70
2021/12/31 10:41:25;;;;;;;13.38;9.55;;;;;;;10.14;100.00;101111.13;5021568;28;20123;-70
2021/12/31 10:44:09;;;;;;;12.98;9.30;;;;;;;10.51;100.00;101106.25;5033941;28;20048;-71
2021/12/31 10:47:14;;;;;;;13.80;9.50;;;;;;;10.18;100.00;101107.25;5034996;28;20063;-70
2021/12/31 10:50:07;;;;;;;12.40;9.55;;;;;;;10.21;100.00;101112.34;5034559;28;20107;-71
2021/12/31 10:53:07;;;;;;;13.70;9.65;;;;;;;10.32;100.00;101122.03;5035013;28;20450;-71
2021/12/31 10:56:07;;;;;;;12.60;9.23;;;;;;;10.51;100.00;101124.91;5034676;28;20045;-71
2021/12/31 10:58:58;;;;;;;12.07;8.68;;;;;;;10.89;100.00;101112.00;5032901;28;20098;-71
2021/12/31 11:01:42;;;;;;;8.68;7.03;;;;;;;11.19;100.00;101111.25;5033693;28;20045;-71
2021/12/31 11:04:28;;;;;;;10.18;6.88;;;;;;;11.24;100.00;101115.25;5033686;28;20051;-70
2021/12/31 11:07:14;;;;;;;14.35;8.00;;;;;;;10.87;100.00;101103.25;5034420;28;20051;-71
2021/12/31 11:09:59;;;;;;;13.48;7.32;;;;;;;11.31;100.00;101087.06;5033245;28;20126;-62
2021/12/31 11:12:46;;;;;;;10.07;6.63;;;;;;;11.31;100.00;101097.75;5033159;28;20044;-69
2021/12/31 11:15:30;;;;;;;8.05;6.38;;;;;;;11.71;100.00;101100.56;5019592;28;20048;-71
2021/12/31 11:18:22;;;;;;;8.65;6.55;;;;;;;11.92;100.00;101115.63;5033510;28;20048;-71
2021/12/31 11:21:09;;;;;;;7.60;6.00;;;;;;;11.83;100.00;101119.06;5034330;28;20168;-71
2021/12/31 11:23:52;;;;;;;7.35;5.97;;;;;;;11.59;100.00;101121.16;5033401;28;20060;-71
2021/12/31 11:26:36;;;;;;;8.57;6.18;;;;;;;11.23;100.00;101126.03;5034382;28;20102;-71
2021/12/31 11:29:20;;;;;;;8.77;5.85;;;;;;;11.29;100.00;101142.38;5033022;28;20087;-70
2021/12/31 11:32:05;;;;;;;10.82;7.47;;;;;;;11.28;100.00;101156.72;5034043;28;20099;-70
2021/12/31 11:35:28;;;;;;;9.60;6.85;;;;;;;11.48;100.00;101142.53;5032854;28;20111;-71
2021/12/31 11:38:23;;;;;;;10.18;8.02;;;;;;;11.53;100.00;101164.38;5009530;28;20052;-71
2021/12/31 11:41:21;;;;;;;7.75;6.15;;;;;;;11.55;100.00;101173.09;5033898;28;20440;-72
2021/12/31 11:44:07;;;;;;;10.18;7.70;;;;;;;11.55;100.00;101143.72;5032804;28;20132;-72
2021/12/31 11:46:51;;;;;;;8.50;6.45;;;;;;;11.75;100.00;101140.25;5033808;28;20091;-71
2021/12/31 11:49:35;;;;;;;8.60;6.80;;;;;;;11.61;100.00;101159.28;5032522;28;20056;-70
2021/12/31 11:52:20;;;;;;;7.75;6.30;;;;;;;11.70;100.00;101142.47;5033739;28;20107;-71
2021/12/31 11:55:19;;;;;;;8.30;6.30;;;;;;;11.62;100.00;101139.59;5032461;28;20144;-72
2021/12/31 11:58:35;;;;;;;9.07;6.45;;;;;;;11.78;100.00;101128.47;5033701;28;20147;-71
2021/12/31 12:01:38;;;;;;;10.57;6.53;;;;;;;11.70;100.00;101131.81;5033851;28;20159;-71
2021/12/31 12:04:45;;;;;;;9.75;7.10;;;;;;;11.75;100.00;101107.34;5032416;28;20126;-71
2021/12/31 12:07:37;;;;;;;9.85;7.10;;;;;;;11.89;100.00;101118.53;5032200;28;20087;-71
2021/12/31 12:10:28;;;;;;;9.95;7.40;;;;;;;12.19;100.00;101115.88;5018023;28;20460;-71
2021/12/31 12:13:25;;;;;;;9.32;6.28;;;;;;;12.53;100.00;101117.28;5032207;28;20043;-70
2021/12/31 12:16:09;;;;;;;9.32;6.65;;;;;;;12.25;100.00;101111.81;5032111;28;20068;-69
2021/12/31 12:18:55;;;;;;;9.85;6.70;;;;;;;12.67;100.00;101110.69;5032315;28;20051;-71
2021/12/31 12:21:39;;;;;;;8.88;6.53;;;;;;;12.67;100.00;101111.53;5034398;28;20048;-71
2021/12/31 12:24:23;;;;;;;7.05;5.53;;;;;;;13.07;100.00;101118.53;5032216;28;20056;-71
2021/12/31 12:27:07;;;;;;;6.10;5.32;;;;;;;12.57;100.00;101097.31;5018209;28;20048;-71
2021/12/31 12:29:52;;;;;;;7.07;6.20;;;;;;;12.05;100.00;101094.00;5033026;28;20511;-71
2021/12/31 12:33:22;;;;;;;9.85;6.68;;;;;;;12.03;100.00;101070.09;5032278;28;20068;-71
2021/12/31 12:35:42;;;;;;;;;;;;;;;12.03;100.00;101061.22;5030413;28;20133;-70
2021/12/31 12:38:29;;;;;;;9.88;7.35;;;;;;;11.66;100.00;101065.41;5033035;28;19924;-69
2021/12/31 12:41:14;;;;;;;8.38;6.82;;;;;;;11.70;100.00;101072.19;5031641;28;20052;-71